ADDS METAR Data INFO
IDs: Format: Raw Decoded Include TAF

Data at: 1756 UTC 15 Dec 2017

KHHW 151735Z AUTO 31007KT 10SM CLR 10/00 A3027 RMK AO2 T00970001
KHHW 151715Z AUTO 34005KT 10SM CLR 09/00 A3027 RMK AO2 T00900004
KHHW 151655Z AUTO 33005KT 10SM CLR 08/00 A3029 RMK AO2 T00830004
KHHW 151635Z AUTO 34004KT 10SM CLR 08/01 A3029 RMK AO2 T00750005
KHHW 151615Z AUTO 31006KT 10SM CLR 07/00 A3029 RMK AO2 T00700004
KHHW 151555Z AUTO 31007KT 10SM CLR 06/00 A3029 RMK AO2 T00610002
KHHW 151535Z AUTO 33007KT 10SM CLR 05/00 A3027 RMK AO2 T00490000
KHHW 151515Z AUTO 30006KT 10SM CLR 04/00 A3029 RMK AO2 T00371004
KHHW 151455Z AUTO 29004KT 10SM CLR 02/M01 A3027 RMK AO2 T00241012
KHHW 151435Z AUTO 30005KT 10SM CLR 01/M02 A3026 RMK AO2 T00101022
KHHW 151415Z AUTO 28003KT 10SM CLR 00/M03 A3027 RMK AO2 T00011027
KHHW 151355Z AUTO 29004KT 10SM CLR M01/M03 A3026 RMK AO2 T10061035
KHHW 151335Z AUTO 29004KT 10SM CLR M01/M04 A3026 RMK AO2 T10061037
KHHW 151315Z AUTO 29005KT 10SM CLR 00/M04 A3026 RMK AO2 T10041037
KHHW 151255Z AUTO 29005KT 10SM CLR 00/M04 A3024 RMK AO2 T10031037
KHHW 151235Z AUTO 29005KT 10SM CLR 00/M04 A3023 RMK AO2 T10011037
KHHW 151215Z AUTO 29005KT 10SM CLR 00/M04 A3023 RMK AO2 T10031038
KHHW 151155Z AUTO 28005KT 10SM CLR 00/M04 A3023 RMK AO2 T10011039 10025 21001
KHHW 151135Z AUTO 28004KT 10SM CLR 00/M04 A3022 RMK AO2 T00031037
KHHW 151115Z AUTO 27004KT 10SM CLR 01/M03 A3022 RMK AO2 T00081035
KHHW 151055Z AUTO 27005KT 10SM CLR 01/M04 A3022 RMK AO2 T00061037
KHHW 151035Z AUTO 27005KT 10SM CLR 01/M04 A3022 RMK AO2 T00051040
KHHW 151015Z AUTO 28004KT 10SM CLR 01/M04 A3021 RMK AO2 T00061040
KHHW 150950Z AUTO 27004KT 10SM CLR 01/M04 A3022 RMK AO2 T00081039
KHHW 150935Z AUTO 29004KT 10SM CLR 01/M04 A3021 RMK AO2 T00061040
KHHW 150915Z AUTO 00000KT 10SM CLR 02/M04 A3021 RMK AO2 T00151038
KHHW 150855Z AUTO 00000KT 10SM CLR 02/M04 A3021 RMK AO2 T00151039
KHHW 150835Z AUTO 25003KT 10SM CLR 02/M04 A3021 RMK AO2 T00191038
KHHW 150815Z AUTO 27003KT 10SM CLR 01/M04 A3021 RMK AO2 T00081038
KHHW 150755Z AUTO 28003KT 10SM CLR 02/M04 A3020 RMK AO2 T00151038
KHHW 150735Z AUTO 28004KT 10SM CLR 01/M04 A3019 RMK AO2 T00121036
KHHW 150715Z AUTO 28004KT 10SM CLR 01/M04 A3021 RMK AO2 T00121036
KHHW 150655Z AUTO 29004KT 10SM CLR 02/M04 A3020 RMK AO2 T00161036
KHHW 150635Z AUTO 29003KT 10SM CLR 02/M03 A3019 RMK AO2 T00181035
KHHW 150615Z AUTO 27003KT 10SM CLR 02/M03 A3020 RMK AO2 T00211034
KHHW 150555Z AUTO 29004KT 10SM CLR 02/M03 A3021 RMK AO2 T00231033 10090 20018 401480018
KHHW 150535Z AUTO 00000KT 10SM CLR 03/M03 A3021 RMK AO2 T00251030
KHHW 150515Z AUTO 00000KT 10SM CLR 03/M03 A3020 RMK AO2 T00271033
KHHW 150455Z AUTO 00000KT 10SM CLR 04/M03 A3020 RMK AO2 T00371032
KHHW 150435Z AUTO 00000KT 10SM CLR 04/M03 A3020 RMK AO2 T00401032
KHHW 150415Z AUTO 32003KT 10SM CLR 04/M03 A3019 RMK AO2 T00361033
KHHW 150355Z AUTO 32003KT 10SM CLR 05/M03 A3019 RMK AO2 T00451032
KHHW 150335Z AUTO 00000KT 10SM CLR 05/M03 A3018 RMK AO2 T00471032
KHHW 150315Z AUTO 00000KT 10SM CLR 05/M03 A3018 RMK AO2 T00451033
KHHW 150255Z AUTO 33003KT 10SM CLR 04/M03 A3018 RMK AO2 T00431032
KHHW 150235Z AUTO 33005KT 10SM CLR 05/M03 A3017 RMK AO2 T00461031
KHHW 150215Z AUTO 34006KT 10SM CLR 05/M03 A3015 RMK AO2 T00531031
KHHW 150155Z AUTO 35007KT 10SM CLR 06/M03 A3015 RMK AO2 T00581032
KHHW 150135Z AUTO 35007KT 10SM CLR 06/M03 A3014 RMK AO2 T00631032
KHHW 150115Z AUTO 36005KT 10SM CLR 07/M03 A3013 RMK AO2 T00681032
KHHW 150055Z AUTO 36007KT 10SM CLR 07/M03 A3013 RMK AO2 T00741032
KHHW 150035Z AUTO 35008KT 10SM CLR 08/M03 A3012 RMK AO2 T00801032
KHHW 150015Z AUTO 36009KT 10SM CLR 09/M03 A3011 RMK AO2 T00871032
KHHW 142355Z AUTO 36006KT 10SM CLR 09/M04 A3011 RMK AO2 T00911040 10148 20091
KHHW 142335Z AUTO 34008KT 10SM CLR 10/M04 A3010 RMK AO2 T00971039
KHHW 142310Z AUTO 34009G14KT 10SM CLR 11/M04 A3008 RMK AO2 T01071037
KHHW 142255Z AUTO 34009KT 10SM CLR 11/M04 A3007 RMK AO2 T01131036
KHHW 142235Z AUTO 35007KT 10SM CLR 12/M04 A3007 RMK AO2 T01201036
KHHW 142215Z AUTO 33012KT 10SM CLR 13/M04 A3006 RMK AO2 T01251038
KHHW 142155Z AUTO 34015G19KT 10SM CLR 13/M04 A3006 RMK AO2 T01291036
KHHW 142135Z AUTO 35011G20KT 10SM CLR 13/M03 A3006 RMK AO2 T01331034
KHHW 142115Z AUTO 33011G16KT 10SM CLR 14/M03 A3005 RMK AO2 T01361031
KHHW 142055Z AUTO 34013G17KT 10SM CLR 14/M03 A3004 RMK AO2 T01381031
KHHW 142035Z AUTO 34014G18KT 10SM CLR 14/M03 A3003 RMK AO2 T01371031
KHHW 142015Z AUTO 33013G17KT 10SM CLR 14/M03 A3003 RMK AO2 T01401028
KHHW 141955Z AUTO 33013G22KT 10SM CLR 14/M02 A3004 RMK AO2 T01421022
KHHW 141935Z AUTO 34010G16KT 10SM CLR 14/M02 A3004 RMK AO2 T01441024
KHHW 141915Z AUTO 35012G19KT 10SM CLR 15/M03 A3005 RMK AO2 T01451027
KHHW 141855Z AUTO 35011G16KT 10SM CLR 15/M03 A3006 RMK AO2 T01451030
KHHW 141835Z AUTO 36008KT 10SM CLR 14/M03 A3006 RMK AO2 T01441031
KHHW 141815Z AUTO 36009G17KT 10SM CLR 14/M03 A3007 RMK AO2 T01401027
KHHW 141755Z AUTO 34013KT 10SM CLR 14/M03 A3008 RMK AO2 T01361028 10142 20041
KHHW 141735Z AUTO 02010G16KT 10SM CLR 14/M03 A3008 RMK AO2 T01371028
KHHW 141715Z AUTO 36013G17KT 10SM CLR 14/M02 A3008 RMK AO2 T01371025
KHHW 141655Z AUTO 01014G21KT 10SM CLR 13/M03 A3009 RMK AO2 T01341026
KHHW 141635Z AUTO 01011G15KT 10SM CLR 13/M02 A3008 RMK AO2 T01301019
KHHW 141615Z AUTO 02009G15KT 10SM CLR 12/M02 A3008 RMK AO2 T01211018
KHHW 141555Z AUTO 01008KT 10SM CLR 12/M01 A3008 RMK AO2 T01151015
KHHW 141535Z AUTO 36005KT 10SM CLR 10/M01 A3007 RMK AO2 T01021014
KHHW 141515Z AUTO 35006KT 10SM CLR 09/M02 A3006 RMK AO2 T00921016
KHHW 141455Z AUTO 36005KT 10SM CLR 08/M02 A3006 RMK AO2 T00811019
KHHW 141435Z AUTO 36005KT 10SM CLR 07/M02 A3005 RMK AO2 T00721023
KHHW 141415Z AUTO 36005KT 10SM CLR 07/M03 A3004 RMK AO2 T00651026
KHHW 141355Z AUTO 35008KT 10SM CLR 06/M03 A3003 RMK AO2 T00551028
KHHW 141335Z AUTO 35006KT 10SM CLR 06/M03 A3002 RMK AO2 T00561033
KHHW 141315Z AUTO 36007KT 10SM CLR 06/M03 A3001 RMK AO2 T00561035
KHHW 141255Z AUTO 36005KT 10SM CLR 05/M03 A3000 RMK AO2 T00501035
KHHW 141235Z AUTO 35006KT 10SM CLR 05/M04 A2999 RMK AO2 T00491036
KHHW 141215Z AUTO 35007KT 10SM CLR 05/M04 A2997 RMK AO2 T00481036
KHHW 141155Z AUTO 34006KT 10SM CLR 05/M03 A2996 RMK AO2 T00451035 10081 20042
KHHW 141135Z AUTO 34006KT 10SM CLR 05/M04 A2995 RMK AO2 T00451040
KHHW 141115Z AUTO 34005KT 10SM CLR 05/M04 A2994 RMK AO2 T00491040
KHHW 141055Z AUTO 35004KT 10SM CLR 05/M04 A2993 RMK AO2 T00491043
KHHW 141035Z AUTO 36003KT 10SM CLR 06/M04 A2992 RMK AO2 T00591043
KHHW 141015Z AUTO 35004KT 10SM CLR 05/M04 A2992 RMK AO2 T00511042
KHHW 140955Z AUTO 35003KT 10SM CLR 05/M04 A2991 RMK AO2 T00521045
KHHW 140935Z AUTO 36004KT 10SM CLR 06/M04 A2990 RMK AO2 T00601043
KHHW 140915Z AUTO 35005KT 10SM CLR 05/M04 A2990 RMK AO2 T00531045
KHHW 140855Z AUTO 00000KT 10SM CLR 06/M05 A2991 RMK AO2 T00591048
KHHW 140835Z AUTO 33005KT 10SM CLR 06/M05 A2990 RMK AO2 T00591050
KHHW 140815Z AUTO 34005KT 10SM CLR 06/M05 A2989 RMK AO2 T00581050
KHHW 140755Z AUTO 32004KT 10SM CLR 06/M05 A2989 RMK AO2 T00611052
KHHW 140735Z AUTO 31004KT 10SM CLR 06/M05 A2989 RMK AO2 T00591052
KHHW 140715Z AUTO 31003KT 10SM CLR 06/M05 A2989 RMK AO2 T00581051
KHHW 140655Z AUTO 00000KT 10SM CLR 08/M06 A2990 RMK AO2 T00761056
KHHW 140635Z AUTO 00000KT 10SM CLR 08/M06 A2990 RMK AO2 T00781059
KHHW 140615Z AUTO 00000KT 10SM CLR 07/M06 A2990 RMK AO2 T00741060